sensor_id;sensor_type;location;lat;lon;timestamp;temperature;humidity
47754;DHT22;2038;51.728;6.674;2023-02-28T00:03:56;0.30;99.90
47754;DHT22;2038;51.728;6.674;2023-02-28T00:18:43;0.30;99.90
47754;DHT22;2038;51.728;6.674;2023-02-28T00:21:08;0.50;99.90
47754;DHT22;2038;51.728;6.674;2023-02-28T00:38:15;0.20;99.90
47754;DHT22;2038;51.728;6.674;2023-02-28T00:40:42;0.80;99.90
47754;DHT22;2038;51.728;6.674;2023-02-28T00:52:53;0.00;99.90
47754;DHT22;2038;51.728;6.674;2023-02-28T01:09:57;0.10;99.90
47754;DHT22;2038;51.728;6.674;2023-02-28T01:14:49;0.60;99.90
47754;DHT22;2038;51.728;6.674;2023-02-28T01:34:19;-0.10;99.90
47754;DHT22;2038;51.728;6.674;2023-02-28T01:39:12;0.10;99.90
47754;DHT22;2038;51.728;6.674;2023-02-28T01:44:53;0.10;99.90
47754;DHT22;2038;51.728;6.674;2023-02-28T01:50:05;0.10;99.90
47754;DHT22;2038;51.728;6.674;2023-02-28T01:57:45;0.00;99.90
47754;DHT22;2038;51.728;6.674;2023-02-28T02:00:20;0.00;99.90
47754;DHT22;2038;51.728;6.674;2023-02-28T02:02:55;0.00;99.90
47754;DHT22;2038;51.728;6.674;2023-02-28T02:05:36;-0.10;99.90
47754;DHT22;2038;51.728;6.674;2023-02-28T02:08:08;0.00;99.90
47754;DHT22;2038;51.728;6.674;2023-02-28T02:10:57;0.00;99.90
47754;DHT22;2038;51.728;6.674;2023-02-28T02:14:08;-0.10;99.90
47754;DHT22;2038;51.728;6.674;2023-02-28T02:17:18;-0.10;99.90
47754;DHT22;2038;51.728;6.674;2023-02-28T02:20:32;-0.10;99.90
47754;DHT22;2038;51.728;6.674;2023-02-28T02:23:54;-0.10;99.90
47754;DHT22;2038;51.728;6.674;2023-02-28T02:36:14;-0.20;99.90
47754;DHT22;2038;51.728;6.674;2023-02-28T02:42:03;0.00;99.90
47754;DHT22;2038;51.728;6.674;2023-02-28T02:45:12;-0.30;99.90
47754;DHT22;2038;51.728;6.674;2023-02-28T02:47:49;-0.30;99.90
47754;DHT22;2038;51.728;6.674;2023-02-28T02:50:26;-0.20;99.90
47754;DHT22;2038;51.728;6.674;2023-02-28T02:53:04;-0.40;99.90
47754;DHT22;2038;51.728;6.674;2023-02-28T02:55:38;-0.30;99.90
47754;DHT22;2038;51.728;6.674;2023-02-28T02:58:15;-0.30;99.90
47754;DHT22;2038;51.728;6.674;2023-02-28T03:00:50;-0.40;99.90
47754;DHT22;2038;51.728;6.674;2023-02-28T03:03:22;-0.50;99.90
47754;DHT22;2038;51.728;6.674;2023-02-28T03:05:55;0.20;99.90
47754;DHT22;2038;51.728;6.674;2023-02-28T03:08:23;0.70;99.90
47754;DHT22;2038;51.728;6.674;2023-02-28T03:10:51;0.40;99.90
47754;DHT22;2038;51.728;6.674;2023-02-28T03:17:08;-0.60;99.90
47754;DHT22;2038;51.728;6.674;2023-02-28T03:20:40;-0.70;99.90
47754;DHT22;2038;51.728;6.674;2023-02-28T03:23:25;-0.80;99.90
47754;DHT22;2038;51.728;6.674;2023-02-28T03:26:21;-0.70;99.90
47754;DHT22;2038;51.728;6.674;2023-02-28T03:29:05;-0.10;99.90
47754;DHT22;2038;51.728;6.674;2023-02-28T03:31:54;-0.80;99.90
47754;DHT22;2038;51.728;6.674;2023-02-28T03:34:34;-0.80;99.90
47754;DHT22;2038;51.728;6.674;2023-02-28T03:37:17;-0.70;99.90
47754;DHT22;2038;51.728;6.674;2023-02-28T03:39:57;-0.60;99.90
47754;DHT22;2038;51.728;6.674;2023-02-28T03:42:35;-0.60;99.90
47754;DHT22;2038;51.728;6.674;2023-02-28T03:45:16;-0.70;99.90
47754;DHT22;2038;51.728;6.674;2023-02-28T03:48:02;-0.50;99.90
47754;DHT22;2038;51.728;6.674;2023-02-28T03:50:48;-0.70;99.90
47754;DHT22;2038;51.728;6.674;2023-02-28T03:53:34;-0.80;99.90
47754;DHT22;2038;51.728;6.674;2023-02-28T03:56:18;-0.80;99.90
47754;DHT22;2038;51.728;6.674;2023-02-28T04:01:52;-0.90;99.90
47754;DHT22;2038;51.728;6.674;2023-02-28T04:04:20;-1.10;99.90
47754;DHT22;2038;51.728;6.674;2023-02-28T04:06:50;-0.30;99.90
47754;DHT22;2038;51.728;6.674;2023-02-28T04:09:18;-1.00;99.90
47754;DHT22;2038;51.728;6.674;2023-02-28T04:11:51;-1.10;99.90
47754;DHT22;2038;51.728;6.674;2023-02-28T04:14:18;-0.90;99.90
47754;DHT22;2038;51.728;6.674;2023-02-28T04:16:44;-1.00;99.90
47754;DHT22;2038;51.728;6.674;2023-02-28T04:19:12;-1.00;99.90
47754;DHT22;2038;51.728;6.674;2023-02-28T04:21:42;-1.10;99.90
47754;DHT22;2038;51.728;6.674;2023-02-28T04:24:14;-1.20;99.90
47754;DHT22;2038;51.728;6.674;2023-02-28T04:26:48;-0.90;99.90
47754;DHT22;2038;51.728;6.674;2023-02-28T04:29:35;-1.10;99.90
47754;DHT22;2038;51.728;6.674;2023-02-28T04:32:02;-0.90;99.90
47754;DHT22;2038;51.728;6.674;2023-02-28T04:37:00;-1.00;99.90
47754;DHT22;2038;51.728;6.674;2023-02-28T04:42:01;-1.00;99.90
47754;DHT22;2038;51.728;6.674;2023-02-28T04:44:27;-0.60;99.90
47754;DHT22;2038;51.728;6.674;2023-02-28T04:46:53;-0.20;99.90
47754;DHT22;2038;51.728;6.674;2023-02-28T04:49:19;-0.70;99.90
47754;DHT22;2038;51.728;6.674;2023-02-28T04:54:12;-0.90;99.90
47754;DHT22;2038;51.728;6.674;2023-02-28T04:56:38;-0.90;99.90
47754;DHT22;2038;51.728;6.674;2023-02-28T04:59:04;-1.10;99.90
47754;DHT22;2038;51.728;6.674;2023-02-28T05:01:32;-1.00;99.90
47754;DHT22;2038;51.728;6.674;2023-02-28T05:04:01;-1.00;99.90
47754;DHT22;2038;51.728;6.674;2023-02-28T05:06:31;-1.00;99.90
47754;DHT22;2038;51.728;6.674;2023-02-28T05:08:59;-1.00;99.90
47754;DHT22;2038;51.728;6.674;2023-02-28T05:11:27;-1.00;99.90
47754;DHT22;2038;51.728;6.674;2023-02-28T05:14:04;-1.10;99.90
47754;DHT22;2038;51.728;6.674;2023-02-28T05:16:36;-1.10;99.90
47754;DHT22;2038;51.728;6.674;2023-02-28T05:19:02;-1.00;99.90
47754;DHT22;2038;51.728;6.674;2023-02-28T05:23:58;-1.00;99.90
47754;DHT22;2038;51.728;6.674;2023-02-28T05:26:30;-1.30;99.90
47754;DHT22;2038;51.728;6.674;2023-02-28T05:29:00;-1.30;99.90
47754;DHT22;2038;51.728;6.674;2023-02-28T05:31:25;-1.40;99.90
47754;DHT22;2038;51.728;6.674;2023-02-28T05:33:52;-1.40;99.90
47754;DHT22;2038;51.728;6.674;2023-02-28T05:36:17;-1.40;99.90
47754;DHT22;2038;51.728;6.674;2023-02-28T05:38:49;-1.30;99.90
47754;DHT22;2038;51.728;6.674;2023-02-28T05:41:17;-1.40;99.90
47754;DHT22;2038;51.728;6.674;2023-02-28T05:43:45;-1.40;99.90
47754;DHT22;2038;51.728;6.674;2023-02-28T05:46:13;-1.40;99.90
47754;DHT22;2038;51.728;6.674;2023-02-28T05:48:40;-1.60;99.90
47754;DHT22;2038;51.728;6.674;2023-02-28T05:51:08;-1.60;99.90
47754;DHT22;2038;51.728;6.674;2023-02-28T05:53:35;-1.30;99.90
47754;DHT22;2038;51.728;6.674;2023-02-28T05:56:02;-0.20;99.90
47754;DHT22;2038;51.728;6.674;2023-02-28T05:58:29;-1.30;99.90
47754;DHT22;2038;51.728;6.674;2023-02-28T06:00:57;-1.30;99.90
47754;DHT22;2038;51.728;6.674;2023-02-28T06:03:43;2.10;99.90
47754;DHT22;2038;51.728;6.674;2023-02-28T06:06:09;-0.90;99.90
47754;DHT22;2038;51.728;6.674;2023-02-28T06:08:35;-0.20;99.90
47754;DHT22;2038;51.728;6.674;2023-02-28T06:11:03;-1.40;99.90
47754;DHT22;2038;51.728;6.674;2023-02-28T06:13:29;-1.30;99.90
47754;DHT22;2038;51.728;6.674;2023-02-28T06:15:55;-1.30;99.90
47754;DHT22;2038;51.728;6.674;2023-02-28T06:18:21;-1.40;99.90
47754;DHT22;2038;51.728;6.674;2023-02-28T06:20:54;-1.30;99.90
47754;DHT22;2038;51.728;6.674;2023-02-28T06:23:21;-1.30;99.90
47754;DHT22;2038;51.728;6.674;2023-02-28T06:25:47;-1.30;99.90
47754;DHT22;2038;51.728;6.674;2023-02-28T06:28:14;-1.40;99.90
47754;DHT22;2038;51.728;6.674;2023-02-28T06:30:41;-1.60;99.90
47754;DHT22;2038;51.728;6.674;2023-02-28T06:33:06;-1.50;99.90
47754;DHT22;2038;51.728;6.674;2023-02-28T06:35:32;-1.60;99.90
47754;DHT22;2038;51.728;6.674;2023-02-28T06:37:58;-0.20;99.90
47754;DHT22;2038;51.728;6.674;2023-02-28T06:40:24;-1.60;99.90
47754;DHT22;2038;51.728;6.674;2023-02-28T06:42:50;-1.40;99.90
47754;DHT22;2038;51.728;6.674;2023-02-28T06:45:15;-0.40;99.90
47754;DHT22;2038;51.728;6.674;2023-02-28T06:47:41;-1.50;99.90
47754;DHT22;2038;51.728;6.674;2023-02-28T06:50:10;-1.40;99.90
47754;DHT22;2038;51.728;6.674;2023-02-28T06:52:38;-1.40;99.90
47754;DHT22;2038;51.728;6.674;2023-02-28T06:55:06;-1.50;99.90
47754;DHT22;2038;51.728;6.674;2023-02-28T06:57:34;-1.30;99.90
47754;DHT22;2038;51.728;6.674;2023-02-28T07:00:05;-1.30;99.90
47754;DHT22;2038;51.728;6.674;2023-02-28T07:02:35;-1.20;99.90
47754;DHT22;2038;51.728;6.674;2023-02-28T07:05:06;-1.20;99.90
47754;DHT22;2038;51.728;6.674;2023-02-28T07:07:32;-1.10;99.90
47754;DHT22;2038;51.728;6.674;2023-02-28T07:09:58;-1.10;99.90
47754;DHT22;2038;51.728;6.674;2023-02-28T07:12:24;-0.90;99.90
47754;DHT22;2038;51.728;6.674;2023-02-28T07:14:50;-2.60;99.90
47754;DHT22;2038;51.728;6.674;2023-02-28T07:17:16;0.20;99.90
47754;DHT22;2038;51.728;6.674;2023-02-28T07:19:41;-0.90;99.90
47754;DHT22;2038;51.728;6.674;2023-02-28T07:22:07;-0.70;99.90
47754;DHT22;2038;51.728;6.674;2023-02-28T07:27:00;-0.50;99.90
47754;DHT22;2038;51.728;6.674;2023-02-28T07:29:26;0.20;99.90
47754;DHT22;2038;51.728;6.674;2023-02-28T07:31:53;-0.40;99.90
47754;DHT22;2038;51.728;6.674;2023-02-28T07:34:19;0.40;99.90
47754;DHT22;2038;51.728;6.674;2023-02-28T07:36:46;-0.40;99.90
47754;DHT22;2038;51.728;6.674;2023-02-28T07:39:12;-0.30;99.90
47754;DHT22;2038;51.728;6.674;2023-02-28T07:41:37;0.00;99.90
47754;DHT22;2038;51.728;6.674;2023-02-28T07:44:09;0.60;99.90
47754;DHT22;2038;51.728;6.674;2023-02-28T07:46:36;0.40;99.90
47754;DHT22;2038;51.728;6.674;2023-02-28T07:49:02;0.40;99.90
47754;DHT22;2038;51.728;6.674;2023-02-28T07:51:29;0.50;99.90
47754;DHT22;2038;51.728;6.674;2023-02-28T07:53:57;1.40;99.90
47754;DHT22;2038;51.728;6.674;2023-02-28T07:56:23;0.50;99.90
47754;DHT22;2038;51.728;6.674;2023-02-28T07:58:49;0.40;99.90
47754;DHT22;2038;51.728;6.674;2023-02-28T08:01:15;0.90;99.90
47754;DHT22;2038;51.728;6.674;2023-02-28T08:03:41;0.70;99.90
47754;DHT22;2038;51.728;6.674;2023-02-28T08:06:14;1.00;99.90
47754;DHT22;2038;51.728;6.674;2023-02-28T08:08:44;1.80;99.90
47754;DHT22;2038;51.728;6.674;2023-02-28T08:11:10;0.90;99.90
47754;DHT22;2038;51.728;6.674;2023-02-28T08:13:36;1.00;99.90
47754;DHT22;2038;51.728;6.674;2023-02-28T08:16:02;1.00;99.90
47754;DHT22;2038;51.728;6.674;2023-02-28T08:18:28;1.10;99.90
47754;DHT22;2038;51.728;6.674;2023-02-28T08:20:54;1.20;99.90
47754;DHT22;2038;51.728;6.674;2023-02-28T08:23:20;1.30;99.90
47754;DHT22;2038;51.728;6.674;2023-02-28T08:25:53;1.40;99.90
47754;DHT22;2038;51.728;6.674;2023-02-28T08:28:22;1.70;99.90
47754;DHT22;2038;51.728;6.674;2023-02-28T08:30:48;1.60;99.90
47754;DHT22;2038;51.728;6.674;2023-02-28T08:33:14;1.60;99.90
47754;DHT22;2038;51.728;6.674;2023-02-28T08:35:40;2.10;99.90
47754;DHT22;2038;51.728;6.674;2023-02-28T08:38:06;1.90;99.90
47754;DHT22;2038;51.728;6.674;2023-02-28T08:45:25;2.00;99.90
47754;DHT22;2038;51.728;6.674;2023-02-28T08:47:51;2.40;99.90
47754;DHT22;2038;51.728;6.674;2023-02-28T08:50:20;2.20;99.90
47754;DHT22;2038;51.728;6.674;2023-02-28T09:00:06;2.50;99.90
47754;DHT22;2038;51.728;6.674;2023-02-28T09:02:33;2.60;99.90
47754;DHT22;2038;51.728;6.674;2023-02-28T09:04:59;2.60;99.90
47754;DHT22;2038;51.728;6.674;2023-02-28T09:07:25;2.70;99.90
47754;DHT22;2038;51.728;6.674;2023-02-28T09:09:51;2.80;99.90
47754;DHT22;2038;51.728;6.674;2023-02-28T09:12:28;2.70;99.90
47754;DHT22;2038;51.728;6.674;2023-02-28T09:15:01;3.00;99.90
47754;DHT22;2038;51.728;6.674;2023-02-28T09:17:27;3.00;99.90
47754;DHT22;2038;51.728;6.674;2023-02-28T09:19:53;3.10;99.90
47754;DHT22;2038;51.728;6.674;2023-02-28T09:22:19;3.20;99.90
47754;DHT22;2038;51.728;6.674;2023-02-28T09:24:45;3.00;99.90
47754;DHT22;2038;51.728;6.674;2023-02-28T09:27:11;3.20;99.90
47754;DHT22;2038;51.728;6.674;2023-02-28T09:29:37;3.30;99.90
47754;DHT22;2038;51.728;6.674;2023-02-28T09:32:03;3.40;99.90
47754;DHT22;2038;51.728;6.674;2023-02-28T09:34:31;3.50;99.90
47754;DHT22;2038;51.728;6.674;2023-02-28T09:36:57;3.40;99.90
47754;DHT22;2038;51.728;6.674;2023-02-28T09:39:23;3.50;99.90
47754;DHT22;2038;51.728;6.674;2023-02-28T09:41:52;3.60;99.90
47754;DHT22;2038;51.728;6.674;2023-02-28T09:44:36;3.60;99.90
47754;DHT22;2038;51.728;6.674;2023-02-28T09:47:20;3.70;99.90
47754;DHT22;2038;51.728;6.674;2023-02-28T09:50:21;3.90;99.90
47754;DHT22;2038;51.728;6.674;2023-02-28T09:53:28;3.80;99.90
47754;DHT22;2038;51.728;6.674;2023-02-28T10:04:54;4.70;99.90
47754;DHT22;2038;51.728;6.674;2023-02-28T10:10:49;4.20;99.90
47754;DHT22;2038;51.728;6.674;2023-02-28T10:13:31;4.20;99.90
47754;DHT22;2038;51.728;6.674;2023-02-28T10:16:11;4.20;99.90
47754;DHT22;2038;51.728;6.674;2023-02-28T10:21:39;4.20;99.90
47754;DHT22;2038;51.728;6.674;2023-02-28T10:24:35;4.30;99.90
47754;DHT22;2038;51.728;6.674;2023-02-28T10:29:53;4.40;99.90
47754;DHT22;2038;51.728;6.674;2023-02-28T10:32:31;4.40;99.90
47754;DHT22;2038;51.728;6.674;2023-02-28T10:37:42;4.50;99.90
47754;DHT22;2038;51.728;6.674;2023-02-28T10:40:33;4.50;99.90
47754;DHT22;2038;51.728;6.674;2023-02-28T10:43:15;4.60;99.90
47754;DHT22;2038;51.728;6.674;2023-02-28T10:51:08;4.80;99.90
47754;DHT22;2038;51.728;6.674;2023-02-28T11:07:31;4.70;99.90
47754;DHT22;2038;51.728;6.674;2023-02-28T11:09:58;4.30;99.90
47754;DHT22;2038;51.728;6.674;2023-02-28T11:15:06;4.80;99.90
47754;DHT22;2038;51.728;6.674;2023-02-28T11:25:32;4.90;99.90
47754;DHT22;2038;51.728;6.674;2023-02-28T11:28:05;5.00;99.90
47754;DHT22;2038;51.728;6.674;2023-02-28T11:33:46;4.90;99.90
47754;DHT22;2038;51.728;6.674;2023-02-28T11:38:58;4.80;99.90
47754;DHT22;2038;51.728;6.674;2023-02-28T11:42:02;4.70;99.90
47754;DHT22;2038;51.728;6.674;2023-02-28T12:20:46;5.10;99.90
47754;DHT22;2038;51.728;6.674;2023-02-28T12:26:36;5.10;99.90
47754;DHT22;2038;51.728;6.674;2023-02-28T12:29:26;5.10;99.90
47754;DHT22;2038;51.728;6.674;2023-02-28T12:32:06;5.10;99.90
47754;DHT22;2038;51.728;6.674;2023-02-28T12:34:49;5.20;99.90
47754;DHT22;2038;51.728;6.674;2023-02-28T12:37:36;5.30;99.90
47754;DHT22;2038;51.728;6.674;2023-02-28T12:40:14;5.40;99.90
47754;DHT22;2038;51.728;6.674;2023-02-28T12:42:51;5.30;99.90
47754;DHT22;2038;51.728;6.674;2023-02-28T12:45:27;5.20;99.90
47754;DHT22;2038;51.728;6.674;2023-02-28T12:48:11;5.30;99.90
47754;DHT22;2038;51.728;6.674;2023-02-28T12:50:54;5.20;99.90
47754;DHT22;2038;51.728;6.674;2023-02-28T12:53:40;5.30;99.90
47754;DHT22;2038;51.728;6.674;2023-02-28T13:00:22;5.10;99.90
47754;DHT22;2038;51.728;6.674;2023-02-28T13:03:22;5.60;99.90
47754;DHT22;2038;51.728;6.674;2023-02-28T13:09:35;5.30;99.90
47754;DHT22;2038;51.728;6.674;2023-02-28T13:12:13;5.40;99.90
47754;DHT22;2038;51.728;6.674;2023-02-28T13:14:42;5.20;99.90
47754;DHT22;2038;51.728;6.674;2023-02-28T13:19:55;5.50;99.90
47754;DHT22;2038;51.728;6.674;2023-02-28T13:22:44;5.60;99.90
47754;DHT22;2038;51.728;6.674;2023-02-28T13:28:11;5.70;99.90
47754;DHT22;2038;51.728;6.674;2023-02-28T13:31:16;5.50;99.90
47754;DHT22;2038;51.728;6.674;2023-02-28T13:38:45;5.50;99.90
47754;DHT22;2038;51.728;6.674;2023-02-28T13:58:36;5.50;99.90
47754;DHT22;2038;51.728;6.674;2023-02-28T14:07:25;5.60;99.90
47754;DHT22;2038;51.728;6.674;2023-02-28T14:10:03;5.70;99.90
47754;DHT22;2038;51.728;6.674;2023-02-28T14:12:59;5.70;99.90
47754;DHT22;2038;51.728;6.674;2023-02-28T14:18:31;5.80;99.90
47754;DHT22;2038;51.728;6.674;2023-02-28T14:21:11;5.70;99.90
47754;DHT22;2038;51.728;6.674;2023-02-28T14:33:40;5.80;99.90
47754;DHT22;2038;51.728;6.674;2023-02-28T14:36:39;5.70;99.90
47754;DHT22;2038;51.728;6.674;2023-02-28T14:39:18;5.70;99.90
47754;DHT22;2038;51.728;6.674;2023-02-28T14:41:49;5.90;99.90
47754;DHT22;2038;51.728;6.674;2023-02-28T14:44:24;5.70;99.90
47754;DHT22;2038;51.728;6.674;2023-02-28T14:46:57;5.70;99.90
47754;DHT22;2038;51.728;6.674;2023-02-28T14:49:43;5.70;99.90
47754;DHT22;2038;51.728;6.674;2023-02-28T14:52:17;5.60;99.90
47754;DHT22;2038;51.728;6.674;2023-02-28T14:55:03;5.70;99.90
47754;DHT22;2038;51.728;6.674;2023-02-28T14:57:41;5.60;99.90
47754;DHT22;2038;51.728;6.674;2023-02-28T15:00:26;5.60;99.90
47754;DHT22;2038;51.728;6.674;2023-02-28T15:02:57;5.60;99.90
47754;DHT22;2038;51.728;6.674;2023-02-28T15:05:33;5.60;99.90
47754;DHT22;2038;51.728;6.674;2023-02-28T15:08:12;5.60;99.90
47754;DHT22;2038;51.728;6.674;2023-02-28T15:10:55;5.70;99.90
47754;DHT22;2038;51.728;6.674;2023-02-28T15:13:47;5.60;99.90
47754;DHT22;2038;51.728;6.674;2023-02-28T15:16:17;5.60;99.90
47754;DHT22;2038;51.728;6.674;2023-02-28T15:18:57;5.80;99.90
47754;DHT22;2038;51.728;6.674;2023-02-28T15:21:32;5.70;99.90
47754;DHT22;2038;51.728;6.674;2023-02-28T15:25:13;5.70;99.90
47754;DHT22;2038;51.728;6.674;2023-02-28T15:27:15;5.80;99.90
47754;DHT22;2038;51.728;6.674;2023-02-28T15:29:49;5.60;99.90
47754;DHT22;2038;51.728;6.674;2023-02-28T15:32:35;5.60;99.90
47754;DHT22;2038;51.728;6.674;2023-02-28T15:35:29;5.60;99.90
47754;DHT22;2038;51.728;6.674;2023-02-28T15:38:02;5.50;99.90
47754;DHT22;2038;51.728;6.674;2023-02-28T15:40:43;5.50;99.90
47754;DHT22;2038;51.728;6.674;2023-02-28T15:46:06;5.60;99.90
47754;DHT22;2038;51.728;6.674;2023-02-28T15:48:44;5.50;99.90
47754;DHT22;2038;51.728;6.674;2023-02-28T15:51:25;5.60;99.90
47754;DHT22;2038;51.728;6.674;2023-02-28T15:54:06;5.30;99.90
47754;DHT22;2038;51.728;6.674;2023-02-28T15:56:44;5.40;99.90
47754;DHT22;2038;51.728;6.674;2023-02-28T15:59:19;5.30;99.90
47754;DHT22;2038;51.728;6.674;2023-02-28T16:05:19;5.50;99.90
47754;DHT22;2038;51.728;6.674;2023-02-28T16:08:08;5.70;99.90
47754;DHT22;2038;51.728;6.674;2023-02-28T16:15:42;5.30;99.90
47754;DHT22;2038;51.728;6.674;2023-02-28T16:18:11;5.30;99.90
47754;DHT22;2038;51.728;6.674;2023-02-28T16:20:38;5.10;99.90
47754;DHT22;2038;51.728;6.674;2023-02-28T16:23:05;5.30;99.90
47754;DHT22;2038;51.728;6.674;2023-02-28T16:28:08;5.20;99.90
47754;DHT22;2038;51.728;6.674;2023-02-28T16:33:12;5.20;99.90
47754;DHT22;2038;51.728;6.674;2023-02-28T16:40:34;4.90;99.90
47754;DHT22;2038;51.728;6.674;2023-02-28T16:43:05;4.80;99.90
47754;DHT22;2038;51.728;6.674;2023-02-28T16:45:40;5.00;99.90
47754;DHT22;2038;51.728;6.674;2023-02-28T16:48:11;4.80;99.90
47754;DHT22;2038;51.728;6.674;2023-02-28T16:55:37;4.50;99.90
47754;DHT22;2038;51.728;6.674;2023-02-28T16:58:03;4.60;99.90
47754;DHT22;2038;51.728;6.674;2023-02-28T17:00:32;4.70;99.90
47754;DHT22;2038;51.728;6.674;2023-02-28T17:05:26;4.50;99.90
47754;DHT22;2038;51.728;6.674;2023-02-28T17:08:01;4.30;99.90
47754;DHT22;2038;51.728;6.674;2023-02-28T17:10:27;4.00;99.90
47754;DHT22;2038;51.728;6.674;2023-02-28T17:17:47;3.90;99.90
47754;DHT22;2038;51.728;6.674;2023-02-28T17:20:17;3.90;99.90
47754;DHT22;2038;51.728;6.674;2023-02-28T17:22:50;3.70;99.90
47754;DHT22;2038;51.728;6.674;2023-02-28T17:30:24;3.60;99.90
47754;DHT22;2038;51.728;6.674;2023-02-28T17:32:53;4.00;99.90
47754;DHT22;2038;51.728;6.674;2023-02-28T17:35:20;3.50;99.90
47754;DHT22;2038;51.728;6.674;2023-02-28T17:40:17;3.40;99.90
47754;DHT22;2038;51.728;6.674;2023-02-28T17:45:14;3.50;99.90
47754;DHT22;2038;51.728;6.674;2023-02-28T17:47:42;3.00;99.90
47754;DHT22;2038;51.728;6.674;2023-02-28T17:50:21;3.30;99.90
47754;DHT22;2038;51.728;6.674;2023-02-28T17:52:47;3.00;99.90
47754;DHT22;2038;51.728;6.674;2023-02-28T17:57:42;2.90;99.90
47754;DHT22;2038;51.728;6.674;2023-02-28T18:00:11;2.90;99.90
47754;DHT22;2038;51.728;6.674;2023-02-28T18:05:08;2.90;99.90
47754;DHT22;2038;51.728;6.674;2023-02-28T18:07:37;2.80;99.90
47754;DHT22;2038;51.728;6.674;2023-02-28T18:14:59;2.70;99.90
47754;DHT22;2038;51.728;6.674;2023-02-28T18:24:44;2.60;99.90
47754;DHT22;2038;51.728;6.674;2023-02-28T18:27:09;2.60;99.90
47754;DHT22;2038;51.728;6.674;2023-02-28T18:34:30;2.30;99.90
47754;DHT22;2038;51.728;6.674;2023-02-28T18:36:56;2.50;99.90
47754;DHT22;2038;51.728;6.674;2023-02-28T18:39:22;2.30;99.90
47754;DHT22;2038;51.728;6.674;2023-02-28T18:46:41;2.20;99.90
47754;DHT22;2038;51.728;6.674;2023-02-28T18:56:26;1.90;99.90
47754;DHT22;2038;51.728;6.674;2023-02-28T18:58:52;2.30;99.90
47754;DHT22;2038;51.728;6.674;2023-02-28T19:01:23;1.80;99.90
47754;DHT22;2038;51.728;6.674;2023-02-28T19:03:54;1.80;99.90
47754;DHT22;2038;51.728;6.674;2023-02-28T19:06:20;1.90;99.90
47754;DHT22;2038;51.728;6.674;2023-02-28T19:08:52;1.80;99.90
47754;DHT22;2038;51.728;6.674;2023-02-28T19:11:20;1.90;99.90
47754;DHT22;2038;51.728;6.674;2023-02-28T19:13:46;2.10;99.90
47754;DHT22;2038;51.728;6.674;2023-02-28T19:16:50;1.90;99.90
47754;DHT22;2038;51.728;6.674;2023-02-28T19:24:09;2.00;99.90
47754;DHT22;2038;51.728;6.674;2023-02-28T19:29:05;1.60;99.90
47754;DHT22;2038;51.728;6.674;2023-02-28T19:41:18;1.80;99.90
47754;DHT22;2038;51.728;6.674;2023-02-28T19:43:45;1.50;99.90
47754;DHT22;2038;51.728;6.674;2023-02-28T19:46:12;1.70;99.90
47754;DHT22;2038;51.728;6.674;2023-02-28T19:48:39;1.40;99.90
47754;DHT22;2038;51.728;6.674;2023-02-28T19:51:09;1.40;99.90
47754;DHT22;2038;51.728;6.674;2023-02-28T19:53:38;1.50;99.90
47754;DHT22;2038;51.728;6.674;2023-02-28T20:01:20;1.50;99.90
47754;DHT22;2038;51.728;6.674;2023-02-28T20:03:48;1.30;99.90
47754;DHT22;2038;51.728;6.674;2023-02-28T20:08:41;1.40;99.90
47754;DHT22;2038;51.728;6.674;2023-02-28T20:11:13;1.30;99.90
47754;DHT22;2038;51.728;6.674;2023-02-28T20:13:42;1.30;99.90
47754;DHT22;2038;51.728;6.674;2023-02-28T20:16:10;1.30;99.90
47754;DHT22;2038;51.728;6.674;2023-02-28T20:18:39;1.40;99.90
47754;DHT22;2038;51.728;6.674;2023-02-28T20:21:10;1.20;99.90
47754;DHT22;2038;51.728;6.674;2023-02-28T20:26:05;1.40;99.90
47754;DHT22;2038;51.728;6.674;2023-02-28T20:36:01;1.00;99.90
47754;DHT22;2038;51.728;6.674;2023-02-28T20:40:59;1.30;99.90
47754;DHT22;2038;51.728;6.674;2023-02-28T20:45:56;1.10;99.90
47754;DHT22;2038;51.728;6.674;2023-02-28T20:50:56;1.30;99.90
47754;DHT22;2038;51.728;6.674;2023-02-28T20:53:26;1.10;99.90
47754;DHT22;2038;51.728;6.674;2023-02-28T20:56:04;1.00;99.90
47754;DHT22;2038;51.728;6.674;2023-02-28T20:58:38;1.20;99.90
47754;DHT22;2038;51.728;6.674;2023-02-28T21:01:10;1.00;99.90
47754;DHT22;2038;51.728;6.674;2023-02-28T21:03:47;0.90;99.90
47754;DHT22;2038;51.728;6.674;2023-02-28T21:06:18;0.90;99.90
47754;DHT22;2038;51.728;6.674;2023-02-28T21:08:47;4.20;99.90
47754;DHT22;2038;51.728;6.674;2023-02-28T21:11:16;1.10;99.90
47754;DHT22;2038;51.728;6.674;2023-02-28T21:16:14;0.80;99.90
47754;DHT22;2038;51.728;6.674;2023-02-28T21:18:42;1.30;99.90
47754;DHT22;2038;51.728;6.674;2023-02-28T21:21:14;0.80;99.90
47754;DHT22;2038;51.728;6.674;2023-02-28T21:23:45;0.80;99.90
47754;DHT22;2038;51.728;6.674;2023-02-28T21:26:13;1.10;99.90
47754;DHT22;2038;51.728;6.674;2023-02-28T21:28:58;0.50;99.90
47754;DHT22;2038;51.728;6.674;2023-02-28T21:31:27;0.60;99.90
47754;DHT22;2038;51.728;6.674;2023-02-28T21:33:58;0.60;99.90
47754;DHT22;2038;51.728;6.674;2023-02-28T21:36:28;0.50;99.90
47754;DHT22;2038;51.728;6.674;2023-02-28T21:39:06;0.50;99.90
47754;DHT22;2038;51.728;6.674;2023-02-28T21:48:56;0.70;99.90
47754;DHT22;2038;51.728;6.674;2023-02-28T21:51:26;0.50;99.90
47754;DHT22;2038;51.728;6.674;2023-02-28T21:53:57;0.50;99.90
47754;DHT22;2038;51.728;6.674;2023-02-28T21:56:27;0.60;99.90
47754;DHT22;2038;51.728;6.674;2023-02-28T22:01:31;0.40;99.90
47754;DHT22;2038;51.728;6.674;2023-02-28T22:04:02;0.40;99.90
47754;DHT22;2038;51.728;6.674;2023-02-28T22:06:33;0.60;99.90
47754;DHT22;2038;51.728;6.674;2023-02-28T22:09:06;0.40;99.90
47754;DHT22;2038;51.728;6.674;2023-02-28T22:11:35;0.50;99.90
47754;DHT22;2038;51.728;6.674;2023-02-28T22:14:03;0.60;99.90
47754;DHT22;2038;51.728;6.674;2023-02-28T22:22:29;0.50;99.90
47754;DHT22;2038;51.728;6.674;2023-02-28T22:32:13;0.40;99.90
47754;DHT22;2038;51.728;6.674;2023-02-28T22:34:39;0.40;99.90
47754;DHT22;2038;51.728;6.674;2023-02-28T22:41:58;0.30;99.90
47754;DHT22;2038;51.728;6.674;2023-02-28T22:46:52;0.30;99.90
47754;DHT22;2038;51.728;6.674;2023-02-28T22:49:19;0.40;99.90
47754;DHT22;2038;51.728;6.674;2023-02-28T23:01:31;0.30;99.90
47754;DHT22;2038;51.728;6.674;2023-02-28T23:03:59;0.30;99.90
47754;DHT22;2038;51.728;6.674;2023-02-28T23:06:34;0.20;99.90
47754;DHT22;2038;51.728;6.674;2023-02-28T23:09:11;0.20;99.90
47754;DHT22;2038;51.728;6.674;2023-02-28T23:11:47;0.10;99.90
47754;DHT22;2038;51.728;6.674;2023-02-28T23:14:17;0.40;99.90
47754;DHT22;2038;51.728;6.674;2023-02-28T23:16:49;0.10;99.90
47754;DHT22;2038;51.728;6.674;2023-02-28T23:19:27;0.00;99.90
47754;DHT22;2038;51.728;6.674;2023-02-28T23:21:57;0.10;99.90
47754;DHT22;2038;51.728;6.674;2023-02-28T23:24:26;0.20;99.90
47754;DHT22;2038;51.728;6.674;2023-02-28T23:26:58;0.60;99.90
47754;DHT22;2038;51.728;6.674;2023-02-28T23:29:27;-0.10;99.90
47754;DHT22;2038;51.728;6.674;2023-02-28T23:36:56;0.10;99.90
47754;DHT22;2038;51.728;6.674;2023-02-28T23:39:26;-0.20;99.90
47754;DHT22;2038;51.728;6.674;2023-02-28T23:41:54;-0.20;99.90
47754;DHT22;2038;51.728;6.674;2023-02-28T23:44:21;-0.20;99.90
47754;DHT22;2038;51.728;6.674;2023-02-28T23:46:50;-0.20;99.90
47754;DHT22;2038;51.728;6.674;2023-02-28T23:49:19;-0.30;99.90
47754;DHT22;2038;51.728;6.674;2023-02-28T23:51:48;-0.20;99.90
47754;DHT22;2038;51.728;6.674;2023-02-28T23:54:16;-0.20;99.90
